Station Historical Data
Daily Summary for April 2, 2017 Units:  Metric    English   Both
« Previous Day
Next Day »
Daily Weekly Monthly Yearly Custom
  High: Low: Average:
Temperature: 26.6 °C 12.3 °C 19.2 °C
Dew Point: 10.6 °C 6.4 °C 8 °C
Humidity: 78% 28% 51%
Wind Speed: 1.6km/h 0km/h 0.2km/h
Wind Gust: 9.7km/h - -
Wind- - WNW
Pressure: 1021.2 hPa 1014.4 hPa -
Precipitation: 0 mm    
Historical Graphs
 
 
Tabular Data for April 2, 2017
Time Temperature Dew Point Pressure Wind Wind Speed Wind Gust Humidity Rainfall Rate (Hourly) solar Conditions
00:00 14.2 °C 7.5 °C 1019.2 hPa Calm     64% 0 mm 0.0 W/m2 SCT
00:15 14.1 °C 7.6 °C 1019.2 hPa Calm   1.6 km/h 65% 0 mm 0.0 W/m2 SCT
00:30 13.9 °C 7.7 °C 1019.2 hPa Calm   1.6 km/h 66% 0 mm 0.0 W/m2 SCT
00:45 13.7 °C 7.3 °C 1019.2 hPa Calm   1.6 km/h 65% 0 mm 0.0 W/m2 SCT
01:00 13.6 °C 7.3 °C 1019.2 hPa Calm   1.6 km/h 66% 0 mm 0.0 W/m2 SCT
01:15 12.9 °C 6.7 °C 1019.2 hPa Calm     66% 0 mm 0.0 W/m2 SCT
01:30 12.9 °C 6.7 °C 1019.2 hPa Calm     66% 0 mm 0.0 W/m2 SCT
01:45 12.9 °C 6.7 °C 1019.2 hPa Calm     66% 0 mm 0.0 W/m2 SCT
02:00 12.9 °C 6.7 °C 1018.8 hPa Calm     66% 0 mm 0.0 W/m2 SCT
02:15 12.9 °C 6.7 °C 1018.8 hPa Calm   1.6 km/h 66% 0 mm 0.0 W/m2 SCT
02:30 12.9 °C 6.7 °C 1018.5 hPa Calm     66% 0 mm 0.0 W/m2 SCT
02:45 12.9 °C 6.7 °C 1018.2 hPa Calm     66% 0 mm 0.0 W/m2 SCT
03:00 12.9 °C 6.7 °C 1018.2 hPa Calm     66% 0 mm 0.0 W/m2 SCT
03:15 12.9 °C 6.7 °C 1017.8 hPa Calm     66% 0 mm 0.0 W/m2 SCT
03:30 12.9 °C 6.7 °C 1017.8 hPa Calm     66% 0 mm 0.0 W/m2 SCT
03:45 12.9 °C 6.7 °C 1017.8 hPa Calm     66% 0 mm 0.0 W/m2 SCT
04:00 12.9 °C 6.7 °C 1017.8 hPa Calm     66% 0 mm 0.0 W/m2 SCT
04:15 12.9 °C 6.7 °C 1017.8 hPa Calm     66% 0 mm 0.0 W/m2 SCT
04:30 12.9 °C 6.7 °C 1017.8 hPa Calm     66% 0 mm 0.0 W/m2 SCT
04:45 12.9 °C 6.7 °C 1017.8 hPa Calm     66% 0 mm 0.0 W/m2 SCT
05:00 12.9 °C 6.7 °C 1017.8 hPa Calm     66% 0 mm 0.0 W/m2 SCT
05:15 12.9 °C 6.7 °C 1017.8 hPa Calm     66% 0 mm 0.0 W/m2 SCT
05:30 12.9 °C 6.7 °C 1017.8 hPa Calm     66% 0 mm 0.0 W/m2 SCT
05:45 12.9 °C 6.7 °C 1018.2 hPa Calm     66% 0 mm 0.0 W/m2 SCT
06:00 12.9 °C 6.7 °C 1018.5 hPa Calm     66% 0 mm 0.0 W/m2 SCT
06:15 12.9 °C 6.7 °C 1018.5 hPa Calm     66% 0 mm 0.0 W/m2 SCT
06:30 12.9 °C 6.7 °C 1018.8 hPa Calm     66% 0 mm 0.0 W/m2 SCT
06:45 12.9 °C 6.7 °C 1018.8 hPa Calm     66% 0 mm 0.0 W/m2 SCT
07:00 12.9 °C 6.7 °C 1019.2 hPa Calm     66% 0 mm 0.0 W/m2 SCT
07:15 12.9 °C 6.7 °C 1019.2 hPa Calm     66% 0 mm 0.0 W/m2 SCT
07:30 12.9 °C 6.7 °C 1019.5 hPa Calm     66% 0 mm 0.0 W/m2 SCT
07:45 12.9 °C 6.7 °C 1019.9 hPa Calm     66% 0 mm 0.0 W/m2 SCT
08:00 12.9 °C 6.7 °C 1019.9 hPa Calm     66% 0 mm 0.0 W/m2 SCT
08:15 12.3 °C 8.6 °C 1020.2 hPa Calm     78% 0 mm 0.0 W/m2 SCT
08:30 12.7 °C 8.6 °C 1020.5 hPa Calm     76% 0 mm 0.0 W/m2 SCT
08:45 13.4 °C 8.3 °C 1020.5 hPa Calm   1.6 km/h 71% 0 mm 0.0 W/m2 SCT
09:00 14.1 °C 8.1 °C 1020.5 hPa Calm   3.2 km/h 67% 0 mm 0.0 W/m2 SCT
09:15 14.7 °C 8.2 °C 1020.2 hPa Calm   8 km/h 65% 0 mm 0.0 W/m2 SCT
09:30 15.1 °C 7.9 °C 1020.2 hPa Calm   8 km/h 62% 0 mm 0.0 W/m2 SCT
09:45 15.8 °C 7.8 °C 1020.5 hPa WNW 1.6 km/h 8 km/h 59% 0 mm 0.0 W/m2 SCT
10:00 16.9 °C 8.6 °C 1020.9 hPa Calm   8 km/h 58% 0 mm 0.0 W/m2 SCT
10:15 17.4 °C 8.3 °C 1020.9 hPa WNW 1.6 km/h 4.8 km/h 55% 0 mm 0.0 W/m2 SCT
10:30 18.1 °C 8.7 °C 1020.9 hPa Calm   4.8 km/h 54% 0 mm 0.0 W/m2 SCT
10:45 18.8 °C 8.8 °C 1020.9 hPa Calm   4.8 km/h 52% 0 mm 0.0 W/m2 SCT
11:00 19.3 °C 8.6 °C 1020.9 hPa Calm   8 km/h 50% 0 mm 0.0 W/m2 SCT
11:15 19.9 °C 8.6 °C 1020.9 hPa West 1.6 km/h 8 km/h 48% 0 mm 0.0 W/m2 SCT
11:30 21.1 °C 9.6 °C 1020.9 hPa Calm   8 km/h 48% 0 mm 0.0 W/m2 SCT
11:45 21.8 °C 9.3 °C 1021.2 hPa Calm   3.2 km/h 45% 0 mm 0.0 W/m2 SCT
12:00 22.2 °C 9.7 °C 1021.2 hPa Calm   8 km/h 45% 0 mm 0.0 W/m2 SCT
12:15 23 °C 10.1 °C 1020.9 hPa Calm   3.2 km/h 44% 0 mm 0.0 W/m2 SCT
12:30 23.4 °C 9.7 °C 1020.5 hPa West 1.6 km/h 4.8 km/h 42% 0 mm 0.0 W/m2 SCT
12:45 23.7 °C 10.1 °C 1020.2 hPa West 1.6 km/h 3.2 km/h 42% 0 mm 0.0 W/m2 SCT
13:00 23.9 °C 9.5 °C 1019.9 hPa WNW 1.6 km/h 8 km/h 40% 0 mm 0.0 W/m2 SCT
13:15 24.3 °C 9.8 °C 1019.5 hPa Calm   8 km/h 40% 0 mm 0.0 W/m2 SCT
13:30 24.8 °C 10.6 °C 1019.2 hPa Calm   8 km/h 41% 0 mm 0.0 W/m2 SCT
13:45 25.3 °C 9.6 °C 1018.8 hPa Calm   9.7 km/h 37% 0 mm 0.0 W/m2 SCT
14:00 25.4 °C 9.2 °C 1018.5 hPa Calm   8 km/h 36% 0 mm 0.0 W/m2 SCT
14:15 25.9 °C 8.4 °C 1018.5 hPa NW 1.6 km/h 4.8 km/h 33% 0 mm 0.0 W/m2 SCT
14:30 26 °C 8.4 °C 1018.2 hPa Calm   8 km/h 33% 0 mm 0.0 W/m2 SCT
14:45 26.1 °C 9.4 °C 1018.2 hPa WNW 1.6 km/h 8 km/h 35% 0 mm 0.0 W/m2 SCT
15:00 26.4 °C 8.3 °C 1017.8 hPa NW 1.6 km/h 3.2 km/h 32% 0 mm 0.0 W/m2 SCT
15:15 26.3 °C 8.2 °C 1017.5 hPa WSW 1.6 km/h 8 km/h 32% 0 mm 0.0 W/m2 SCT
15:30 26.1 °C 8.5 °C 1017.5 hPa Calm   3.2 km/h 33% 0 mm 0.0 W/m2 SCT
15:45 26 °C 8.9 °C 1017.2 hPa Calm   8 km/h 34% 0 mm 0.0 W/m2 SCT
16:00 26.2 °C 7.3 °C 1017.2 hPa NW 1.6 km/h 4.8 km/h 30% 0 mm 0.0 W/m2 SCT
16:15 26.2 °C 7.3 °C 1017.2 hPa NW 1.6 km/h 4.8 km/h 30% 0 mm 0.0 W/m2 SCT
16:30 26.4 °C 6.4 °C 1016.5 hPa NNW 1.6 km/h 8 km/h 28% 0 mm 0.0 W/m2 SCT
16:45 26.6 °C 7.1 °C 1016.5 hPa Calm   8 km/h 29% 0 mm 0.0 W/m2 SCT
17:00 26.6 °C 7.6 °C 1016.5 hPa Calm   8 km/h 30% 0 mm 0.0 W/m2 SCT
17:15 26.5 °C 7.5 °C 1016.1 hPa Calm   4.8 km/h 30% 0 mm 0.0 W/m2 SCT
17:30 26.5 °C 7.5 °C 1016.1 hPa Calm   3.2 km/h 30% 0 mm 0.0 W/m2 SCT
17:45 26.4 °C 7.4 °C 1015.8 hPa Calm   3.2 km/h 30% 0 mm 0.0 W/m2 SCT
18:00 26 °C 7.6 °C 1015.8 hPa Calm   3.2 km/h 31% 0 mm 0.0 W/m2 SCT
18:15 25.7 °C 7.8 °C 1015.5 hPa Calm   3.2 km/h 32% 0 mm 0.0 W/m2 SCT
18:30 25.7 °C 7.8 °C 1015.1 hPa Calm   3.2 km/h 32% 0 mm 0.0 W/m2 SCT
18:45 25.4 °C 8.4 °C 1014.8 hPa Calm   4.8 km/h 34% 0 mm 0.0 W/m2 SCT
19:00 25.2 °C 7.8 °C 1015.1 hPa Calm   4.8 km/h 33% 0 mm 0.0 W/m2 SCT
19:15 24.8 °C 8.3 °C 1014.8 hPa Calm   3.2 km/h 35% 0 mm 0.0 W/m2 SCT
19:30 24.4 °C 8.3 °C 1014.8 hPa Calm   1.6 km/h 36% 0 mm 0.0 W/m2 SCT
19:45 23.9 °C 8.7 °C 1014.4 hPa Calm   1.6 km/h 38% 0 mm 0.0 W/m2 SCT
20:00 23.3 °C 8.6 °C 1014.8 hPa Calm   1.6 km/h 39% 0 mm 0.0 W/m2 SCT
20:15 22.8 °C 8.9 °C 1014.8 hPa Calm     41% 0 mm 0.0 W/m2 SCT
20:30 22.6 °C 8.7 °C 1014.8 hPa Calm   3.2 km/h 41% 0 mm 0.0 W/m2 SCT
20:45 22.4 °C 8.9 °C 1014.8 hPa Calm   1.6 km/h 42% 0 mm 0.0 W/m2 SCT
21:00 22.1 °C 8.9 °C 1014.8 hPa Calm   1.6 km/h 43% 0 mm 0.0 W/m2 SCT
21:15 22.1 °C 8.9 °C 1014.8 hPa Calm   4.8 km/h 43% 0 mm 0.0 W/m2 SCT
21:30 21.8 °C 9 °C 1015.1 hPa Calm   1.6 km/h 44% 0 mm 0.0 W/m2 SCT
21:45 21.6 °C 9.1 °C 1015.1 hPa Calm   1.6 km/h 45% 0 mm 0.0 W/m2 SCT
22:00 21.3 °C 8.9 °C 1014.8 hPa Calm   1.6 km/h 45% 0 mm 0.0 W/m2 SCT
22:15 21.2 °C 8.8 °C 1015.1 hPa Calm   3.2 km/h 45% 0 mm 0.0 W/m2 SCT
22:30 21.1 °C 9 °C 1015.1 hPa Calm   3.2 km/h 46% 0 mm 0.0 W/m2 SCT
22:45 20.8 °C 9.4 °C 1015.1 hPa Calm   1.6 km/h 48% 0 mm 0.0 W/m2 SCT
23:00 20.7 °C 9.6 °C 1015.1 hPa Calm   3.2 km/h 49% 0 mm 0.0 W/m2 SCT
23:15 20.4 °C 9.9 °C 1015.5 hPa Calm   1.6 km/h 51% 0 mm 0.0 W/m2 SCT
23:30 20.2 °C 10.1 °C 1015.5 hPa Calm   1.6 km/h 52% 0 mm 0.0 W/m2 SCT
23:45 20 °C 10.1 °C 1015.5 hPa Calm   1.6 km/h 53% 0 mm 0.0 W/m2 SCT
Piedmont Bend
Compliments of Weather Underground - 4 mb